sensor_id;sensor_type;location;lat;lon;timestamp;temperature;humidity
22680;DHT22;11507;44.858;10.374;2022-07-29T12:03:07;41.80;61.50
22680;DHT22;11507;44.858;10.374;2022-07-29T12:06:14;42.20;58.20
22680;DHT22;11507;44.858;10.374;2022-07-29T12:08:42;42.50;58.80
22680;DHT22;11507;44.858;10.374;2022-07-29T12:11:16;42.70;58.70
22680;DHT22;11507;44.858;10.374;2022-07-29T12:13:42;42.70;56.50
22680;DHT22;11507;44.858;10.374;2022-07-29T12:16:10;42.80;55.90
22680;DHT22;11507;44.858;10.374;2022-07-29T12:18:37;43.00;56.10
22680;DHT22;11507;44.858;10.374;2022-07-29T12:21:03;42.80;54.50
22680;DHT22;11507;44.858;10.374;2022-07-29T12:23:31;42.80;54.10
22680;DHT22;11507;44.858;10.374;2022-07-29T12:25:59;42.20;53.30
22680;DHT22;11507;44.858;10.374;2022-07-29T12:28:25;41.50;54.60
22680;DHT22;11507;44.858;10.374;2022-07-29T12:30:52;40.70;55.60
22680;DHT22;11507;44.858;10.374;2022-07-29T12:33:22;39.80;56.90
22680;DHT22;11507;44.858;10.374;2022-07-29T12:35:51;39.00;58.30
22680;DHT22;11507;44.858;10.374;2022-07-29T12:38:19;38.30;59.20
22680;DHT22;11507;44.858;10.374;2022-07-29T12:40:46;37.70;61.30
22680;DHT22;11507;44.858;10.374;2022-07-29T12:43:19;37.20;61.70
22680;DHT22;11507;44.858;10.374;2022-07-29T12:45:51;36.80;64.00
22680;DHT22;11507;44.858;10.374;2022-07-29T12:48:31;36.40;64.10
22680;DHT22;11507;44.858;10.374;2022-07-29T12:50:59;36.00;66.30
22680;DHT22;11507;44.858;10.374;2022-07-29T12:53:25;35.70;67.60
22680;DHT22;11507;44.858;10.374;2022-07-29T12:55:53;35.50;69.70
22680;DHT22;11507;44.858;10.374;2022-07-29T12:58:38;35.20;69.40
22680;DHT22;11507;44.858;10.374;2022-07-29T13:01:13;35.00;69.80
22680;DHT22;11507;44.858;10.374;2022-07-29T13:06:30;34.70;69.80
22680;DHT22;11507;44.858;10.374;2022-07-29T13:09:17;34.50;70.80
22680;DHT22;11507;44.858;10.374;2022-07-29T13:11:49;34.30;70.50
22680;DHT22;11507;44.858;10.374;2022-07-29T13:14:36;34.20;72.00
22680;DHT22;11507;44.858;10.374;2022-07-29T13:17:23;34.00;73.90
22680;DHT22;11507;44.858;10.374;2022-07-29T13:19:51;33.80;76.50
22680;DHT22;11507;44.858;10.374;2022-07-29T13:22:22;33.50;80.40
22680;DHT22;11507;44.858;10.374;2022-07-29T13:27:23;33.00;84.50
22680;DHT22;11507;44.858;10.374;2022-07-29T13:29:51;32.70;87.00
22680;DHT22;11507;44.858;10.374;2022-07-29T13:32:19;32.40;89.20
22680;DHT22;11507;44.858;10.374;2022-07-29T13:34:44;32.10;87.50
22680;DHT22;11507;44.858;10.374;2022-07-29T13:37:11;31.90;88.50
22680;DHT22;11507;44.858;10.374;2022-07-29T13:39:38;31.70;88.60
22680;DHT22;11507;44.858;10.374;2022-07-29T13:42:07;31.40;89.30
22680;DHT22;11507;44.858;10.374;2022-07-29T13:44:33;31.10;90.90
22680;DHT22;11507;44.858;10.374;2022-07-29T13:46:59;30.90;92.00
22680;DHT22;11507;44.858;10.374;2022-07-29T13:49:26;30.80;92.70
22680;DHT22;11507;44.858;10.374;2022-07-29T13:51:53;30.70;94.20
22680;DHT22;11507;44.858;10.374;2022-07-29T13:54:19;30.60;94.80
22680;DHT22;11507;44.858;10.374;2022-07-29T13:56:47;30.40;94.80
22680;DHT22;11507;44.858;10.374;2022-07-29T13:59:14;30.30;97.60
22680;DHT22;11507;44.858;10.374;2022-07-29T14:01:40;30.10;99.80
22680;DHT22;11507;44.858;10.374;2022-07-29T14:04:08;29.90;99.90
22680;DHT22;11507;44.858;10.374;2022-07-29T14:06:36;29.80;99.90
22680;DHT22;11507;44.858;10.374;2022-07-29T14:09:03;29.70;99.90
22680;DHT22;11507;44.858;10.374;2022-07-29T14:11:32;29.60;99.90
22680;DHT22;11507;44.858;10.374;2022-07-29T14:13:58;29.60;99.90
22680;DHT22;11507;44.858;10.374;2022-07-29T14:16:24;29.50;99.90
22680;DHT22;11507;44.858;10.374;2022-07-29T14:18:50;29.30;99.90
22680;DHT22;11507;44.858;10.374;2022-07-29T14:21:16;29.20;99.90
22680;DHT22;11507;44.858;10.374;2022-07-29T14:23:43;29.10;99.90
22680;DHT22;11507;44.858;10.374;2022-07-29T14:26:10;29.10;99.90
22680;DHT22;11507;44.858;10.374;2022-07-29T14:28:35;29.10;99.90
22680;DHT22;11507;44.858;10.374;2022-07-29T14:31:01;29.10;99.90
22680;DHT22;11507;44.858;10.374;2022-07-29T14:33:27;29.20;99.90
22680;DHT22;11507;44.858;10.374;2022-07-29T14:35:53;29.20;99.90
22680;DHT22;11507;44.858;10.374;2022-07-29T14:38:19;29.20;99.90
22680;DHT22;11507;44.858;10.374;2022-07-29T14:40:45;29.30;99.90
22680;DHT22;11507;44.858;10.374;2022-07-29T14:43:14;29.30;99.90
22680;DHT22;11507;44.858;10.374;2022-07-29T14:45:41;29.40;99.90
22680;DHT22;11507;44.858;10.374;2022-07-29T14:48:09;29.50;99.90
22680;DHT22;11507;44.858;10.374;2022-07-29T14:50:38;29.50;99.90
22680;DHT22;11507;44.858;10.374;2022-07-29T14:53:04;29.40;99.90
22680;DHT22;11507;44.858;10.374;2022-07-29T14:55:30;29.20;99.90
22680;DHT22;11507;44.858;10.374;2022-07-29T14:57:57;29.10;99.90
22680;DHT22;11507;44.858;10.374;2022-07-29T15:00:25;28.90;99.90
22680;DHT22;11507;44.858;10.374;2022-07-29T15:02:52;28.60;99.90
22680;DHT22;11507;44.858;10.374;2022-07-29T15:05:18;28.30;99.90
22680;DHT22;11507;44.858;10.374;2022-07-29T15:07:45;27.90;99.90
22680;DHT22;11507;44.858;10.374;2022-07-29T15:10:11;27.40;99.90
22680;DHT22;11507;44.858;10.374;2022-07-29T15:12:37;27.20;99.90
22680;DHT22;11507;44.858;10.374;2022-07-29T15:15:05;26.90;99.90
22680;DHT22;11507;44.858;10.374;2022-07-29T15:17:33;26.80;99.90
22680;DHT22;11507;44.858;10.374;2022-07-29T15:19:59;26.50;99.90
22680;DHT22;11507;44.858;10.374;2022-07-29T15:22:25;26.40;99.90
22680;DHT22;11507;44.858;10.374;2022-07-29T15:24:52;26.20;99.90
22680;DHT22;11507;44.858;10.374;2022-07-29T15:27:17;26.10;99.90
22680;DHT22;11507;44.858;10.374;2022-07-29T15:29:48;26.00;99.90
22680;DHT22;11507;44.858;10.374;2022-07-29T15:32:16;25.90;99.90
22680;DHT22;11507;44.858;10.374;2022-07-29T15:34:42;25.80;99.90
22680;DHT22;11507;44.858;10.374;2022-07-29T15:37:08;25.80;99.90
22680;DHT22;11507;44.858;10.374;2022-07-29T15:39:37;25.70;99.90
22680;DHT22;11507;44.858;10.374;2022-07-29T15:42:03;25.70;99.90
22680;DHT22;11507;44.858;10.374;2022-07-29T15:44:30;25.70;99.90
22680;DHT22;11507;44.858;10.374;2022-07-29T15:46:56;25.80;99.90
22680;DHT22;11507;44.858;10.374;2022-07-29T15:49:39;25.80;99.90
22680;DHT22;11507;44.858;10.374;2022-07-29T15:52:05;25.70;99.90
22680;DHT22;11507;44.858;10.374;2022-07-29T15:54:36;25.70;99.90
22680;DHT22;11507;44.858;10.374;2022-07-29T15:57:05;25.70;99.90
22680;DHT22;11507;44.858;10.374;2022-07-29T15:59:32;25.70;99.90
22680;DHT22;11507;44.858;10.374;2022-07-29T16:01:59;25.70;99.90
22680;DHT22;11507;44.858;10.374;2022-07-29T16:04:26;25.80;99.90
22680;DHT22;11507;44.858;10.374;2022-07-29T16:06:52;25.80;99.90
22680;DHT22;11507;44.858;10.374;2022-07-29T16:09:19;25.90;99.90
22680;DHT22;11507;44.858;10.374;2022-07-29T16:11:45;26.10;99.90
22680;DHT22;11507;44.858;10.374;2022-07-29T16:14:13;26.20;99.90
22680;DHT22;11507;44.858;10.374;2022-07-29T16:16:39;26.20;99.90
22680;DHT22;11507;44.858;10.374;2022-07-29T16:19:07;26.40;99.90
22680;DHT22;11507;44.858;10.374;2022-07-29T16:21:38;26.50;99.90
22680;DHT22;11507;44.858;10.374;2022-07-29T16:24:05;26.50;99.90
22680;DHT22;11507;44.858;10.374;2022-07-29T16:26:32;26.40;99.90
22680;DHT22;11507;44.858;10.374;2022-07-29T16:28:58;26.40;99.90
22680;DHT22;11507;44.858;10.374;2022-07-29T16:31:26;26.40;99.90
22680;DHT22;11507;44.858;10.374;2022-07-29T16:33:52;26.40;99.90
22680;DHT22;11507;44.858;10.374;2022-07-29T16:36:19;26.50;99.90
22680;DHT22;11507;44.858;10.374;2022-07-29T16:38:48;26.60;99.90
22680;DHT22;11507;44.858;10.374;2022-07-29T16:41:15;26.60;99.90
22680;DHT22;11507;44.858;10.374;2022-07-29T16:43:47;26.60;99.90
22680;DHT22;11507;44.858;10.374;2022-07-29T16:46:16;26.50;99.90
22680;DHT22;11507;44.858;10.374;2022-07-29T16:48:44;26.60;99.90
22680;DHT22;11507;44.858;10.374;2022-07-29T16:51:11;26.60;99.90
22680;DHT22;11507;44.858;10.374;2022-07-29T16:53:38;26.60;99.90
22680;DHT22;11507;44.858;10.374;2022-07-29T16:56:04;26.60;99.90
22680;DHT22;11507;44.858;10.374;2022-07-29T16:58:30;26.60;99.90
22680;DHT22;11507;44.858;10.374;2022-07-29T17:00:56;26.80;99.90
22680;DHT22;11507;44.858;10.374;2022-07-29T17:03:27;26.90;99.90
22680;DHT22;11507;44.858;10.374;2022-07-29T17:05:53;27.00;99.90
22680;DHT22;11507;44.858;10.374;2022-07-29T17:08:19;27.00;99.90
22680;DHT22;11507;44.858;10.374;2022-07-29T17:10:45;27.00;99.90
22680;DHT22;11507;44.858;10.374;2022-07-29T17:13:11;27.00;99.90
22680;DHT22;11507;44.858;10.374;2022-07-29T17:15:38;27.00;99.90
22680;DHT22;11507;44.858;10.374;2022-07-29T17:18:08;26.90;99.90
22680;DHT22;11507;44.858;10.374;2022-07-29T17:20:35;26.90;99.90
22680;DHT22;11507;44.858;10.374;2022-07-29T17:23:02;26.80;99.90
22680;DHT22;11507;44.858;10.374;2022-07-29T17:25:28;26.80;99.90
22680;DHT22;11507;44.858;10.374;2022-07-29T17:27:54;26.80;99.90
22680;DHT22;11507;44.858;10.374;2022-07-29T17:30:22;26.60;99.90
22680;DHT22;11507;44.858;10.374;2022-07-29T17:32:48;26.60;99.90
22680;DHT22;11507;44.858;10.374;2022-07-29T17:35:14;26.60;99.90
22680;DHT22;11507;44.858;10.374;2022-07-29T17:37:59;26.60;99.90
22680;DHT22;11507;44.858;10.374;2022-07-29T17:40:25;26.50;99.90
22680;DHT22;11507;44.858;10.374;2022-07-29T17:42:54;26.50;99.90
22680;DHT22;11507;44.858;10.374;2022-07-29T17:45:20;26.50;99.90
22680;DHT22;11507;44.858;10.374;2022-07-29T17:47:47;26.40;99.90
22680;DHT22;11507;44.858;10.374;2022-07-29T17:50:16;26.40;99.90
22680;DHT22;11507;44.858;10.374;2022-07-29T17:52:42;26.30;99.90
22680;DHT22;11507;44.858;10.374;2022-07-29T17:55:09;26.20;99.90
22680;DHT22;11507;44.858;10.374;2022-07-29T17:57:35;26.10;99.90
22680;DHT22;11507;44.858;10.374;2022-07-29T18:00:05;26.10;99.90
22680;DHT22;11507;44.858;10.374;2022-07-29T18:02:32;26.00;99.90
22680;DHT22;11507;44.858;10.374;2022-07-29T18:04:58;25.90;99.90
22680;DHT22;11507;44.858;10.374;2022-07-29T18:07:24;25.80;99.90
22680;DHT22;11507;44.858;10.374;2022-07-29T18:09:50;25.60;99.90
22680;DHT22;11507;44.858;10.374;2022-07-29T18:12:16;25.50;99.90
22680;DHT22;11507;44.858;10.374;2022-07-29T18:14:42;25.40;99.90
22680;DHT22;11507;44.858;10.374;2022-07-29T18:17:08;25.30;99.90
22680;DHT22;11507;44.858;10.374;2022-07-29T18:19:34;25.00;99.90
22680;DHT22;11507;44.858;10.374;2022-07-29T18:22:00;24.80;99.90
22680;DHT22;11507;44.858;10.374;2022-07-29T18:24:27;24.60;99.90
22680;DHT22;11507;44.858;10.374;2022-07-29T18:26:53;24.40;99.90
22680;DHT22;11507;44.858;10.374;2022-07-29T18:29:19;24.30;99.90
22680;DHT22;11507;44.858;10.374;2022-07-29T18:31:45;24.20;99.90
22680;DHT22;11507;44.858;10.374;2022-07-29T18:34:11;24.00;99.90
22680;DHT22;11507;44.858;10.374;2022-07-29T18:36:40;23.90;99.90
22680;DHT22;11507;44.858;10.374;2022-07-29T18:39:06;23.90;99.90
22680;DHT22;11507;44.858;10.374;2022-07-29T18:41:31;23.80;99.90
22680;DHT22;11507;44.858;10.374;2022-07-29T18:43:58;23.70;99.90
22680;DHT22;11507;44.858;10.374;2022-07-29T18:46:24;23.60;99.90
22680;DHT22;11507;44.858;10.374;2022-07-29T18:48:50;23.50;99.90
22680;DHT22;11507;44.858;10.374;2022-07-29T18:51:16;23.50;99.90
22680;DHT22;11507;44.858;10.374;2022-07-29T18:53:42;23.40;99.90
22680;DHT22;11507;44.858;10.374;2022-07-29T18:56:09;23.40;99.90
22680;DHT22;11507;44.858;10.374;2022-07-29T18:58:35;23.40;99.90
22680;DHT22;11507;44.858;10.374;2022-07-29T19:01:04;23.40;99.90
22680;DHT22;11507;44.858;10.374;2022-07-29T19:03:30;23.40;99.90
22680;DHT22;11507;44.858;10.374;2022-07-29T19:05:56;23.40;99.90
22680;DHT22;11507;44.858;10.374;2022-07-29T19:08:23;23.40;99.90
22680;DHT22;11507;44.858;10.374;2022-07-29T19:10:50;23.40;99.90
22680;DHT22;11507;44.858;10.374;2022-07-29T19:13:16;23.40;99.90
22680;DHT22;11507;44.858;10.374;2022-07-29T19:15:42;23.50;99.90
22680;DHT22;11507;44.858;10.374;2022-07-29T19:18:08;23.50;99.90
22680;DHT22;11507;44.858;10.374;2022-07-29T19:20:34;23.50;99.90
22680;DHT22;11507;44.858;10.374;2022-07-29T19:23:02;23.50;99.90
22680;DHT22;11507;44.858;10.374;2022-07-29T19:25:42;23.40;99.90
22680;DHT22;11507;44.858;10.374;2022-07-29T19:28:09;23.40;99.90
22680;DHT22;11507;44.858;10.374;2022-07-29T19:30:35;23.30;99.90
22680;DHT22;11507;44.858;10.374;2022-07-29T19:33:03;23.20;99.90
22680;DHT22;11507;44.858;10.374;2022-07-29T19:35:29;23.20;99.90
22680;DHT22;11507;44.858;10.374;2022-07-29T19:38:00;23.10;99.90
22680;DHT22;11507;44.858;10.374;2022-07-29T19:40:27;23.10;99.90
22680;DHT22;11507;44.858;10.374;2022-07-29T19:42:54;23.00;99.90
22680;DHT22;11507;44.858;10.374;2022-07-29T19:45:21;23.00;99.90
22680;DHT22;11507;44.858;10.374;2022-07-29T19:47:50;23.00;99.90
22680;DHT22;11507;44.858;10.374;2022-07-29T19:50:16;22.80;99.90
22680;DHT22;11507;44.858;10.374;2022-07-29T19:52:44;22.70;99.90
22680;DHT22;11507;44.858;10.374;2022-07-29T19:55:12;22.60;99.90
22680;DHT22;11507;44.858;10.374;2022-07-29T19:57:40;22.40;99.90
22680;DHT22;11507;44.858;10.374;2022-07-29T20:00:07;22.00;99.90
22680;DHT22;11507;44.858;10.374;2022-07-29T20:02:33;21.80;99.90
22680;DHT22;11507;44.858;10.374;2022-07-29T20:04:59;21.70;99.90
22680;DHT22;11507;44.858;10.374;2022-07-29T20:07:25;21.50;99.90
22680;DHT22;11507;44.858;10.374;2022-07-29T20:09:51;21.40;99.90
22680;DHT22;11507;44.858;10.374;2022-07-29T20:12:21;21.30;99.90
22680;DHT22;11507;44.858;10.374;2022-07-29T20:14:48;21.30;99.90
22680;DHT22;11507;44.858;10.374;2022-07-29T20:17:15;21.30;99.90
22680;DHT22;11507;44.858;10.374;2022-07-29T20:19:41;21.30;99.90
22680;DHT22;11507;44.858;10.374;2022-07-29T20:22:08;21.30;99.90
22680;DHT22;11507;44.858;10.374;2022-07-29T20:24:34;21.40;99.90
22680;DHT22;11507;44.858;10.374;2022-07-29T20:27:00;21.40;99.90
22680;DHT22;11507;44.858;10.374;2022-07-29T20:29:26;21.40;99.90
22680;DHT22;11507;44.858;10.374;2022-07-29T20:31:52;21.40;99.90
22680;DHT22;11507;44.858;10.374;2022-07-29T20:34:19;21.50;99.90
22680;DHT22;11507;44.858;10.374;2022-07-29T20:36:47;21.50;99.90
22680;DHT22;11507;44.858;10.374;2022-07-29T20:39:14;21.50;99.90
22680;DHT22;11507;44.858;10.374;2022-07-29T20:41:40;21.50;99.90
22680;DHT22;11507;44.858;10.374;2022-07-29T20:44:06;21.50;99.90
22680;DHT22;11507;44.858;10.374;2022-07-29T20:46:33;21.50;99.90
22680;DHT22;11507;44.858;10.374;2022-07-29T20:48:58;21.60;99.90
22680;DHT22;11507;44.858;10.374;2022-07-29T20:51:24;21.60;99.90
22680;DHT22;11507;44.858;10.374;2022-07-29T20:53:50;21.70;99.90
22680;DHT22;11507;44.858;10.374;2022-07-29T20:56:16;21.70;99.90
22680;DHT22;11507;44.858;10.374;2022-07-29T20:58:45;21.70;99.90
22680;DHT22;11507;44.858;10.374;2022-07-29T21:01:11;21.70;99.90
22680;DHT22;11507;44.858;10.374;2022-07-29T21:03:37;21.70;99.90
22680;DHT22;11507;44.858;10.374;2022-07-29T21:06:03;21.70;99.90
22680;DHT22;11507;44.858;10.374;2022-07-29T21:08:29;21.70;99.90
22680;DHT22;11507;44.858;10.374;2022-07-29T21:10:56;21.60;99.90
22680;DHT22;11507;44.858;10.374;2022-07-29T21:13:22;21.50;99.90
22680;DHT22;11507;44.858;10.374;2022-07-29T21:15:50;21.40;99.90
22680;DHT22;11507;44.858;10.374;2022-07-29T21:18:18;21.40;99.90
22680;DHT22;11507;44.858;10.374;2022-07-29T21:21:01;21.40;99.90
22680;DHT22;11507;44.858;10.374;2022-07-29T21:23:27;21.40;99.90
22680;DHT22;11507;44.858;10.374;2022-07-29T21:25:53;21.40;99.90
22680;DHT22;11507;44.858;10.374;2022-07-29T21:28:20;21.40;99.90
22680;DHT22;11507;44.858;10.374;2022-07-29T21:30:59;21.40;99.90
22680;DHT22;11507;44.858;10.374;2022-07-29T21:33:27;21.40;99.90
22680;DHT22;11507;44.858;10.374;2022-07-29T21:35:54;21.40;99.90
22680;DHT22;11507;44.858;10.374;2022-07-29T21:38:20;21.40;99.90
22680;DHT22;11507;44.858;10.374;2022-07-29T21:40:47;21.40;99.90
22680;DHT22;11507;44.858;10.374;2022-07-29T21:43:14;21.40;99.90
22680;DHT22;11507;44.858;10.374;2022-07-29T21:45:40;21.50;99.90
22680;DHT22;11507;44.858;10.374;2022-07-29T21:48:07;21.50;99.90
22680;DHT22;11507;44.858;10.374;2022-07-29T21:50:33;21.50;99.90
22680;DHT22;11507;44.858;10.374;2022-07-29T21:52:59;21.50;99.90
22680;DHT22;11507;44.858;10.374;2022-07-29T21:55:26;21.40;99.90
22680;DHT22;11507;44.858;10.374;2022-07-29T21:57:52;21.50;99.90
22680;DHT22;11507;44.858;10.374;2022-07-29T22:00:20;21.50;99.90
22680;DHT22;11507;44.858;10.374;2022-07-29T22:02:47;21.50;99.90
22680;DHT22;11507;44.858;10.374;2022-07-29T22:05:13;21.40;99.90
22680;DHT22;11507;44.858;10.374;2022-07-29T22:07:40;21.40;99.90
22680;DHT22;11507;44.858;10.374;2022-07-29T22:10:06;21.30;99.90
22680;DHT22;11507;44.858;10.374;2022-07-29T22:12:33;21.30;99.90
22680;DHT22;11507;44.858;10.374;2022-07-29T22:14:59;21.20;99.90
22680;DHT22;11507;44.858;10.374;2022-07-29T22:17:25;21.20;99.90
22680;DHT22;11507;44.858;10.374;2022-07-29T22:19:51;21.20;99.90
22680;DHT22;11507;44.858;10.374;2022-07-29T22:22:18;21.20;99.90
22680;DHT22;11507;44.858;10.374;2022-07-29T22:24:45;21.20;99.90
22680;DHT22;11507;44.858;10.374;2022-07-29T22:27:11;21.20;99.90
22680;DHT22;11507;44.858;10.374;2022-07-29T22:29:38;21.20;99.90
22680;DHT22;11507;44.858;10.374;2022-07-29T22:32:04;21.20;99.90
22680;DHT22;11507;44.858;10.374;2022-07-29T22:34:30;21.20;99.90
22680;DHT22;11507;44.858;10.374;2022-07-29T22:36:57;21.20;99.90
22680;DHT22;11507;44.858;10.374;2022-07-29T22:39:23;21.20;99.90
22680;DHT22;11507;44.858;10.374;2022-07-29T22:41:49;21.20;99.90
22680;DHT22;11507;44.858;10.374;2022-07-29T22:44:17;21.20;99.90
22680;DHT22;11507;44.858;10.374;2022-07-29T22:46:43;21.20;99.90
22680;DHT22;11507;44.858;10.374;2022-07-29T22:49:09;21.20;99.90
22680;DHT22;11507;44.858;10.374;2022-07-29T22:51:35;21.20;99.90
22680;DHT22;11507;44.858;10.374;2022-07-29T22:54:02;21.20;99.90
22680;DHT22;11507;44.858;10.374;2022-07-29T22:56:28;21.20;99.90
22680;DHT22;11507;44.858;10.374;2022-07-29T22:58:54;21.20;99.90
22680;DHT22;11507;44.858;10.374;2022-07-29T23:01:21;21.20;99.90
22680;DHT22;11507;44.858;10.374;2022-07-29T23:03:47;21.20;99.90
22680;DHT22;11507;44.858;10.374;2022-07-29T23:06:13;21.20;99.90
22680;DHT22;11507;44.858;10.374;2022-07-29T23:08:39;21.10;99.90
22680;DHT22;11507;44.858;10.374;2022-07-29T23:11:05;21.10;99.90
22680;DHT22;11507;44.858;10.374;2022-07-29T23:13:31;21.10;99.90
22680;DHT22;11507;44.858;10.374;2022-07-29T23:15:57;21.10;99.90
22680;DHT22;11507;44.858;10.374;2022-07-29T23:18:23;21.10;99.90
22680;DHT22;11507;44.858;10.374;2022-07-29T23:20:49;21.10;99.90
22680;DHT22;11507;44.858;10.374;2022-07-29T23:23:15;21.10;99.90
22680;DHT22;11507;44.858;10.374;2022-07-29T23:25:41;21.10;99.90
22680;DHT22;11507;44.858;10.374;2022-07-29T23:28:07;21.00;99.90
22680;DHT22;11507;44.858;10.374;2022-07-29T23:30:36;21.00;99.90
22680;DHT22;11507;44.858;10.374;2022-07-29T23:33:03;21.00;99.90
22680;DHT22;11507;44.858;10.374;2022-07-29T23:35:28;20.90;99.90
22680;DHT22;11507;44.858;10.374;2022-07-29T23:37:54;20.90;99.90
22680;DHT22;11507;44.858;10.374;2022-07-29T23:40:20;20.90;99.90
22680;DHT22;11507;44.858;10.374;2022-07-29T23:42:46;20.90;99.90
22680;DHT22;11507;44.858;10.374;2022-07-29T23:45:12;20.90;99.90
22680;DHT22;11507;44.858;10.374;2022-07-29T23:47:39;20.90;99.90
22680;DHT22;11507;44.858;10.374;2022-07-29T23:50:06;20.90;99.90
22680;DHT22;11507;44.858;10.374;2022-07-29T23:52:33;20.90;99.90
22680;DHT22;11507;44.858;10.374;2022-07-29T23:54:59;20.90;99.90
22680;DHT22;11507;44.858;10.374;2022-07-29T23:57:25;20.90;99.90
22680;DHT22;11507;44.858;10.374;2022-07-29T23:59:52;20.80;99.90
